createdAt,value
2022-10-19T03:41:55.743Z,20.45
2022-10-19T03:44:58.675Z,25.27
2022-10-19T03:48:00.971Z,18.15
2022-10-19T03:51:08.611Z,18.55
2022-10-19T03:54:15.965Z,17.05
2022-10-19T03:57:18.578Z,19.20
2022-10-19T04:00:21.210Z,13.50
2022-10-19T04:03:23.868Z,14.80
2022-10-19T04:06:29.399Z,17.25
2022-10-19T04:09:32.176Z,18.58
2022-10-19T04:12:34.511Z,19.50
2022-10-19T04:15:37.037Z,14.65
2022-10-19T04:18:39.431Z,19.85
2022-10-19T04:21:44.135Z,20.25
2022-10-19T04:24:46.464Z,23.17
2022-10-19T04:27:48.987Z,15.15
2022-10-19T04:30:51.381Z,17.27
2022-10-19T04:33:54.493Z,19.50
2022-10-19T04:36:59.381Z,15.55
2022-10-19T04:40:02.308Z,17.12
2022-10-19T04:43:05.434Z,16.23
2022-10-19T04:46:10.345Z,15.77
2022-10-19T04:49:15.208Z,14.60
2022-10-19T04:52:20.505Z,17.45
2022-10-19T04:55:22.852Z,13.90
2022-10-19T04:58:25.591Z,16.02
2022-10-19T05:01:30.777Z,16.87
2022-10-19T05:04:33.352Z,17.83
2022-10-19T05:07:35.870Z,16.00
2022-10-19T05:10:38.881Z,15.90
2022-10-19T05:13:43.197Z,23.20
2022-10-19T05:16:45.726Z,17.30
2022-10-19T05:19:47.953Z,15.25
2022-10-19T05:22:50.978Z,21.47
2022-10-19T05:26:11.383Z,17.47
2022-10-19T05:29:14.658Z,14.07
2022-10-19T05:32:16.906Z,18.67
2022-10-19T05:35:22.332Z,13.23
2022-10-19T05:38:25.209Z,15.20
2022-10-19T05:41:28.315Z,12.70
2022-10-19T05:44:30.722Z,16.85
2022-10-19T05:47:34.472Z,13.27
2022-10-19T05:50:36.964Z,14.95
2022-10-19T05:53:40.334Z,11.47
2022-10-19T05:56:43.365Z,14.05
2022-10-19T06:02:48.229Z,12.37
2022-10-19T06:05:51.738Z,12.20
2022-10-19T06:08:56.301Z,13.50
2022-10-19T06:11:58.802Z,11.77
2022-10-19T06:15:01.060Z,23.67
2022-10-19T06:18:04.579Z,13.73
2022-10-19T06:21:10.528Z,14.68
2022-10-19T06:24:13.374Z,12.70
2022-10-19T06:27:15.687Z,11.40
2022-10-19T06:33:21.288Z,12.23
2022-10-19T06:36:26.958Z,16.62
2022-10-19T06:39:29.238Z,9.07
2022-10-19T06:42:31.891Z,12.73
2022-10-19T06:45:37.051Z,13.25
2022-10-19T06:48:39.593Z,11.30
2022-10-19T06:51:42.211Z,13.32
2022-10-19T06:54:44.981Z,12.18
2022-10-19T06:57:47.323Z,9.40
2022-10-19T07:00:58.672Z,11.93
2022-10-19T07:04:01.234Z,16.20
2022-10-19T07:07:03.980Z,12.23
2022-10-19T07:10:08.625Z,9.75
2022-10-19T07:13:11.440Z,11.73
2022-10-19T07:16:19.663Z,13.52
2022-10-19T07:19:26.658Z,11.50
2022-10-19T07:22:29.006Z,11.43
2022-10-19T07:25:32.224Z,10.23
2022-10-19T07:28:35.395Z,19.55
2022-10-19T07:31:37.922Z,9.52
2022-10-19T07:34:40.168Z,8.63
2022-10-19T07:37:42.739Z,8.03
2022-10-19T07:40:48.365Z,10.38
2022-10-19T07:43:51.918Z,10.50
2022-10-19T07:46:54.161Z,9.65
2022-10-19T07:49:56.681Z,9.00
2022-10-19T07:52:58.954Z,10.45
2022-10-19T07:56:06.437Z,10.85
2022-10-19T07:59:09.977Z,11.82
2022-10-19T08:02:17.140Z,12.90
2022-10-19T08:05:19.808Z,8.82
2022-10-19T08:08:22.185Z,9.75
2022-10-19T08:11:28.678Z,13.30
2022-10-19T08:14:31.655Z,10.30
2022-10-19T08:17:37.655Z,9.07
2022-10-19T08:20:45.362Z,10.20
2022-10-19T08:23:47.889Z,11.95
2022-10-19T08:26:51.410Z,13.10
2022-10-19T08:29:54.037Z,12.13
2022-10-19T08:32:56.271Z,12.18
2022-10-19T08:35:58.761Z,10.60
2022-10-19T08:39:02.647Z,10.63
2022-10-19T08:42:14.285Z,11.45
2022-10-19T08:45:22.213Z,20.77
2022-10-19T08:48:32.929Z,11.05
2022-10-19T08:51:39.888Z,12.27
2022-10-19T08:57:57.896Z,6.93
2022-10-19T09:01:06.335Z,13.43
2022-10-19T09:04:24.433Z,9.55
2022-10-19T09:07:31.083Z,9.50
2022-10-19T09:10:38.949Z,9.05
2022-10-19T09:14:04.329Z,12.85
2022-10-19T09:17:14.594Z,10.38
2022-10-19T09:20:29.398Z,8.95
2022-10-19T09:23:50.263Z,8.75
2022-10-19T09:26:56.337Z,11.20
2022-10-19T09:30:03.728Z,12.80
2022-10-19T09:33:16.377Z,7.62
2022-10-19T09:36:22.928Z,5.70
2022-10-19T09:39:31.167Z,8.75
2022-10-19T09:42:34.722Z,7.85
2022-10-19T09:45:44.978Z,13.27
2022-10-19T09:48:52.778Z,8.23
2022-10-19T09:51:55.954Z,7.97
2022-10-19T09:55:03.558Z,9.30
2022-10-19T09:58:17.679Z,9.70
2022-10-19T10:01:41.704Z,10.10
2022-10-19T10:04:56.739Z,11.60
2022-10-19T10:07:59.316Z,6.82
2022-10-19T10:11:10.517Z,7.32
2022-10-19T10:14:40.369Z,10.48
2022-10-19T10:17:46.297Z,9.95
2022-10-19T10:24:11.729Z,7.22
2022-10-19T10:27:45.239Z,5.07
2022-10-19T10:30:53.395Z,4.97
2022-10-19T10:34:10.789Z,4.12
2022-10-19T10:37:35.496Z,4.03
2022-10-19T10:40:39.253Z,3.85
2022-10-19T10:44:04.911Z,3.58
2022-10-19T10:47:14.931Z,3.97
2022-10-19T10:50:23.387Z,4.70
2022-10-19T10:53:34.883Z,6.95
2022-10-19T10:56:40.724Z,4.35
2022-10-19T11:00:15.823Z,3.40
2022-10-19T11:03:33.653Z,3.85
2022-10-19T11:06:44.743Z,3.87
2022-10-19T11:09:58.279Z,7.97
2022-10-19T11:13:12.741Z,7.90
2022-10-19T11:16:18.440Z,12.48
2022-10-19T11:19:34.030Z,3.40
2022-10-19T11:22:46.889Z,4.30
2022-10-19T11:26:10.618Z,6.73
2022-10-19T11:29:31.958Z,4.60
2022-10-19T11:32:52.691Z,3.17
2022-10-19T11:36:10.701Z,3.22
2022-10-19T11:39:47.317Z,4.32
2022-10-19T11:43:00.661Z,3.47
2022-10-19T11:46:07.285Z,5.18
2022-10-19T11:49:35.022Z,2.40
2022-10-19T11:52:51.416Z,3.92
2022-10-19T11:56:25.158Z,4.20
2022-10-19T12:00:15.388Z,3.58
2022-10-19T12:03:29.057Z,7.25
2022-10-19T12:06:48.775Z,8.82
2022-10-19T12:10:11.257Z,4.65
2022-10-19T12:13:40.642Z,2.65
2022-10-19T12:16:49.680Z,3.60
2022-10-19T12:19:56.563Z,3.47
2022-10-19T12:22:59.809Z,3.55
2022-10-19T12:26:05.938Z,5.97
2022-10-19T12:29:34.298Z,5.35
2022-10-19T12:32:44.723Z,2.85
2022-10-19T12:36:29.289Z,4.03
2022-10-19T12:39:39.103Z,4.47
2022-10-19T12:42:59.482Z,4.07
2022-10-19T12:46:22.232Z,7.28
2022-10-19T12:49:30.829Z,3.00
2022-10-19T12:52:38.360Z,4.93
2022-10-19T12:55:43.545Z,2.75
2022-10-19T12:59:01.296Z,3.50
2022-10-19T13:02:24.349Z,4.47
2022-10-19T13:05:30.373Z,5.32
2022-10-19T13:08:42.473Z,6.75
2022-10-19T13:12:21.393Z,3.75
2022-10-19T13:15:35.367Z,4.30
2022-10-19T13:18:59.549Z,4.22
2022-10-19T13:22:02.131Z,3.80
2022-10-19T13:25:19.469Z,5.80
2022-10-19T13:28:27.812Z,6.70
2022-10-19T13:31:32.967Z,4.32
2022-10-19T13:34:36.203Z,10.60
2022-10-19T13:37:38.553Z,12.82
2022-10-19T13:40:51.104Z,5.37
2022-10-19T13:44:08.610Z,3.42
2022-10-19T13:47:33.496Z,4.85
2022-10-19T13:51:11.495Z,3.53
2022-10-19T13:54:14.093Z,3.10
2022-10-19T13:57:37.758Z,5.30
2022-10-19T14:01:06.246Z,4.32
2022-10-19T14:04:24.003Z,10.82
2022-10-19T14:07:33.437Z,15.43
2022-10-19T14:10:49.447Z,11.98
2022-10-19T14:14:09.417Z,7.45
2022-10-19T14:20:29.438Z,26.15
2022-10-19T14:23:39.988Z,5.50
2022-10-19T14:26:43.326Z,7.65
2022-10-19T14:29:49.820Z,19.80
2022-10-19T14:32:56.766Z,8.45
2022-10-19T14:36:02.585Z,11.20
2022-10-19T14:39:05.710Z,8.77
2022-10-19T14:42:10.796Z,6.78
2022-10-19T14:45:18.026Z,5.87
2022-10-19T14:48:20.765Z,4.72
2022-10-19T14:51:42.241Z,6.90
2022-10-19T14:54:47.995Z,6.00
2022-10-19T14:57:52.871Z,5.28
2022-10-19T15:00:57.543Z,5.05
2022-10-19T15:03:59.886Z,6.27
2022-10-19T15:07:13.433Z,5.30
2022-10-19T15:10:39.501Z,4.90
2022-10-19T15:13:42.894Z,5.25
2022-10-19T15:17:00.653Z,7.18
2022-10-19T15:20:23.802Z,4.40
2022-10-19T15:23:40.822Z,7.15
2022-10-19T15:27:01.729Z,5.22
2022-10-19T15:30:31.631Z,8.73
2022-10-19T15:33:39.632Z,7.65
2022-10-19T15:36:55.532Z,6.15
2022-10-19T15:39:58.258Z,5.95
2022-10-19T15:43:01.061Z,6.37
2022-10-19T15:46:19.846Z,4.60
2022-10-19T15:49:40.519Z,5.85
2022-10-19T15:52:43.180Z,5.43
2022-10-19T15:55:45.658Z,6.90
2022-10-19T15:58:53.369Z,5.82
2022-10-19T16:01:56.388Z,4.70
2022-10-19T16:04:59.539Z,6.65
2022-10-19T16:08:02.235Z,5.93
